Shiquanhe, China
Current Conditions -  °F | °C
As of 3:00 PM on Saturday 29 Nov 2014 (Local Time) from VIAR Reporting Station
Haze Haze  
Wind Chill: 79°   Ceiling: Unl
Heat Index: 79°   Visibility: 3mi
Dew Point: 46°   Wind: 0mph
Humidity: 32%   Direction: NA
Pressure: 29.97"   Gusts: NA
Location:  32.5°N, 80.08°E
Report Text: VIAR 290700Z VRB00KT 5000 HZ NSC 26/08 Q1015
Loading
Personal Weather Stations






























Interactive Weather Map New forecast layout! Learn more

10-Day Weather Forecast

Advertisements
Track Severe Weather on mobile